Time;durP1;ratioP1;P1;durP2;ratioP2;P2;SDS_P1;SDS_P2;PMS_P1;PMS_P2;Temp;Humidity;BMP_temperature;BMP_pressure;BME280_temperature;BME280_humidity;BME280_pressure;Samples;Min_cycle;Max_cycle;Signal;HPM_P1;HPM_P2
2024/02/26 00:02:04;;;;;;;6.88;2.72;;;;;;;;;;4891724;29;20060;-87
2024/02/26 00:04:35;;;;;;;9.52;2.63;;;;;;;;;;4882163;29;20040;-88
2024/02/26 00:07:07;;;;;;;8.57;2.58;;;;;;;;;;4885254;29;20057;-88
2024/02/26 00:09:38;;;;;;;6.65;2.65;;;;;;;;;;4877222;29;20037;-88
2024/02/26 00:12:09;;;;;;;7.70;2.72;;;;;;;;;;4894073;29;20056;-88
2024/02/26 00:14:41;;;;;;;7.35;2.88;;;;;;;;;;4889393;29;20052;-88
2024/02/26 00:17:11;;;;;;;8.27;2.90;;;;;;;;;;4895731;29;20063;-88
2024/02/26 00:19:43;;;;;;;6.80;2.85;;;;;;;;;;4896001;29;20056;-88
2024/02/26 00:22:13;;;;;;;6.55;2.90;;;;;;;;;;4895771;29;20052;-86
2024/02/26 00:24:44;;;;;;;9.02;2.92;;;;;;;;;;4895830;29;20495;-87
2024/02/26 00:27:14;;;;;;;5.35;3.03;;;;;;;;;;4896048;29;20404;-88
2024/02/26 00:29:45;;;;;;;6.53;3.25;;;;;;;;;;4895564;29;20071;-88
2024/02/26 00:32:15;;;;;;;7.90;2.85;;;;;;;;;;4895533;29;20411;-89
2024/02/26 00:34:45;;;;;;;5.82;2.63;;;;;;;;;;4895666;29;20056;-89
2024/02/26 00:37:17;;;;;;;6.47;2.63;;;;;;;;;;4895118;29;20160;-88
2024/02/26 00:39:49;;;;;;;5.97;2.28;;;;;;;;;;4895954;29;20045;-88
2024/02/26 00:42:20;;;;;;;9.55;3.00;;;;;;;;;;4893557;29;20055;-86
2024/02/26 00:44:51;;;;;;;8.75;2.63;;;;;;;;;;4883533;29;20067;-87
2024/02/26 00:47:21;;;;;;;6.85;2.78;;;;;;;;;;4878352;29;20060;-87
2024/02/26 00:49:52;;;;;;;6.25;2.72;;;;;;;;;;4893113;29;20052;-86
2024/02/26 00:52:23;;;;;;;7.93;3.50;;;;;;;;;;4892621;29;20057;-87
2024/02/26 00:54:54;;;;;;;9.25;3.40;;;;;;;;;;4892050;29;20057;-87
2024/02/26 00:57:24;;;;;;;9.75;3.55;;;;;;;;;;4892344;29;20061;-88
2024/02/26 00:59:56;;;;;;;10.48;3.50;;;;;;;;;;4889287;29;20518;-87
2024/02/26 01:02:27;;;;;;;7.95;3.28;;;;;;;;;;4892350;29;20419;-87
2024/02/26 01:04:58;;;;;;;7.18;2.95;;;;;;;;;;4883801;29;20075;-87
2024/02/26 01:07:29;;;;;;;7.93;3.17;;;;;;;;;;4884211;29;20053;-87
2024/02/26 01:10:00;;;;;;;9.23;3.05;;;;;;;;;;4877479;29;20040;-88
2024/02/26 01:12:32;;;;;;;6.30;3.25;;;;;;;;;;4884696;29;20053;-88
2024/02/26 01:15:03;;;;;;;7.30;3.05;;;;;;;;;;4878216;29;20098;-87
2024/02/26 01:17:34;;;;;;;7.47;2.55;;;;;;;;;;4883414;29;20436;-88
2024/02/26 01:20:05;;;;;;;6.25;2.67;;;;;;;;;;4879733;29;20057;-88
2024/02/26 01:22:35;;;;;;;6.63;2.40;;;;;;;;;;4891523;29;20052;-87
2024/02/26 01:25:09;;;;;;;8.32;2.70;;;;;;;;;;4885811;29;20519;-87
2024/02/26 01:27:42;;;;;;;8.13;2.60;;;;;;;;;;4883018;29;20052;-87
2024/02/26 01:30:16;;;;;;;7.65;2.70;;;;;;;;;;4893029;29;20056;-86
2024/02/26 01:32:48;;;;;;;10.13;2.42;;;;;;;;;;4893204;29;20057;-86
2024/02/26 01:35:19;;;;;;;9.98;3.65;;;;;;;;;;4877344;29;20045;-86
2024/02/26 01:37:50;;;;;;;6.55;2.42;;;;;;;;;;4879689;29;20481;-87
2024/02/26 01:40:20;;;;;;;5.22;2.40;;;;;;;;;;4876765;29;20057;-87
2024/02/26 01:42:53;;;;;;;16.00;2.78;;;;;;;;;;4877271;29;20120;-86
2024/02/26 01:45:25;;;;;;;5.22;2.50;;;;;;;;;;4877748;29;20061;-87
2024/02/26 01:47:57;;;;;;;5.13;2.22;;;;;;;;;;4876819;29;20060;-87
2024/02/26 01:50:28;;;;;;;9.43;3.03;;;;;;;;;;4877643;29;20050;-85
2024/02/26 01:52:59;;;;;;;5.90;2.45;;;;;;;;;;4876062;29;20064;-86
2024/02/26 01:55:30;;;;;;;7.05;2.95;;;;;;;;;;4875322;29;20063;-86
2024/02/26 01:58:01;;;;;;;6.18;2.55;;;;;;;;;;4876355;29;20057;-86
2024/02/26 02:00:32;;;;;;;7.60;2.75;;;;;;;;;;4897685;29;20471;-86
2024/02/26 02:03:04;;;;;;;11.93;2.75;;;;;;;;;;4880132;29;20474;-86
2024/02/26 02:05:41;;;;;;;9.90;2.95;;;;;;;;;;4911151;29;20052;-86
2024/02/26 02:08:14;;;;;;;13.18;3.63;;;;;;;;;;4899129;29;20045;-87
2024/02/26 02:10:47;;;;;;;7.78;3.10;;;;;;;;;;4885450;29;20056;-87
2024/02/26 02:13:18;;;;;;;6.90;2.92;;;;;;;;;;4896201;29;20053;-86
2024/02/26 02:15:49;;;;;;;6.38;3.47;;;;;;;;;;4879962;29;20068;-88
2024/02/26 02:18:20;;;;;;;9.80;2.95;;;;;;;;;;4882142;29;20052;-88
2024/02/26 02:20:51;;;;;;;6.13;2.95;;;;;;;;;;4879934;29;20057;-91
2024/02/26 02:23:22;;;;;;;10.55;4.03;;;;;;;;;;4879559;29;20495;-89
2024/02/26 02:25:54;;;;;;;6.65;2.95;;;;;;;;;;4864628;29;20053;-90
2024/02/26 02:28:28;;;;;;;8.88;3.47;;;;;;;;;;4865785;29;20119;-90
2024/02/26 02:31:00;;;;;;;11.93;3.42;;;;;;;;;;4895354;29;20053;-89
2024/02/26 02:33:31;;;;;;;7.20;2.97;;;;;;;;;;4896233;29;20053;-90
2024/02/26 02:36:01;;;;;;;7.78;3.17;;;;;;;;;;4895852;29;20404;-90
2024/02/26 02:38:33;;;;;;;5.80;3.00;;;;;;;;;;4881849;29;20049;-90
2024/02/26 02:41:05;;;;;;;8.07;3.20;;;;;;;;;;4879371;29;20064;-90
2024/02/26 02:43:35;;;;;;;11.77;4.30;;;;;;;;;;4864040;29;20488;-90
2024/02/26 02:46:07;;;;;;;;;;;;;;;;;;4880241;29;20057;-90
2024/02/26 02:48:37;;;;;;;9.65;2.97;;;;;;;;;;4879566;29;20385;-90
2024/02/26 02:51:09;;;;;;;5.88;3.25;;;;;;;;;;4895547;29;20075;-89
2024/02/26 02:53:39;;;;;;;11.85;3.10;;;;;;;;;;4880246;29;20057;-89
2024/02/26 02:56:09;;;;;;;8.57;3.00;;;;;;;;;;4895339;29;20056;-89
2024/02/26 02:58:41;;;;;;;7.45;3.90;;;;;;;;;;4880529;29;20059;-90
2024/02/26 03:01:13;;;;;;;13.13;3.33;;;;;;;;;;4879947;29;20056;-89
2024/02/26 03:03:44;;;;;;;7.22;2.92;;;;;;;;;;4880458;29;20060;-90
2024/02/26 03:06:13;;;;;;;8.10;3.47;;;;;;;;;;4895349;29;20060;-89
2024/02/26 03:08:45;;;;;;;9.25;3.28;;;;;;;;;;4880231;29;20492;-90
2024/02/26 03:11:15;;;;;;;10.55;3.10;;;;;;;;;;4879012;29;20063;-89
2024/02/26 03:13:45;;;;;;;9.98;4.15;;;;;;;;;;4879793;29;20056;-90
2024/02/26 03:16:17;;;;;;;7.18;3.08;;;;;;;;;;4879482;29;20061;-89
2024/02/26 03:18:47;;;;;;;7.05;3.30;;;;;;;;;;4879380;29;20049;-88
2024/02/26 03:21:19;;;;;;;8.85;3.10;;;;;;;;;;4880408;29;20468;-89
2024/02/26 03:23:49;;;;;;;5.20;2.80;;;;;;;;;;4880828;29;20407;-89
2024/02/26 03:26:19;;;;;;;7.47;2.97;;;;;;;;;;4895129;29;20080;-90
2024/02/26 03:28:49;;;;;;;6.22;3.08;;;;;;;;;;4863580;29;20130;-91
2024/02/26 03:31:21;;;;;;;7.10;3.05;;;;;;;;;;4879626;29;20064;-89
2024/02/26 03:33:52;;;;;;;11.52;2.83;;;;;;;;;;4881651;29;20221;-90
2024/02/26 03:36:23;;;;;;;11.23;2.97;;;;;;;;;;4894938;29;20496;-90
2024/02/26 03:38:53;;;;;;;13.73;2.80;;;;;;;;;;4879375;29;20057;-90
2024/02/26 03:41:23;;;;;;;14.88;3.10;;;;;;;;;;4894785;29;20437;-87
2024/02/26 03:43:53;;;;;;;5.97;2.85;;;;;;;;;;4880007;29;20484;-85
2024/02/26 03:46:25;;;;;;;9.15;3.05;;;;;;;;;;4879772;29;20408;-86
2024/02/26 03:48:56;;;;;;;8.07;2.72;;;;;;;;;;4862807;29;20056;-87
2024/02/26 03:51:31;;;;;;;9.73;2.70;;;;;;;;;;4879043;29;20049;-87
2024/02/26 03:54:02;;;;;;;9.82;3.30;;;;;;;;;;4880398;29;20048;-87
2024/02/26 03:56:33;;;;;;;7.47;2.53;;;;;;;;;;4880304;29;20053;-87
2024/02/26 03:59:04;;;;;;;7.13;3.35;;;;;;;;;;4878175;29;20389;-89
2024/02/26 04:01:35;;;;;;;7.43;2.53;;;;;;;;;;4878947;29;20045;-89
2024/02/26 04:04:05;;;;;;;9.45;2.55;;;;;;;;;;4879095;29;20048;-88
2024/02/26 04:06:35;;;;;;;8.70;3.28;;;;;;;;;;4878278;29;20518;-90
2024/02/26 04:09:05;;;;;;;8.02;2.47;;;;;;;;;;4878542;29;20053;-90
2024/02/26 04:11:36;;;;;;;8.98;3.47;;;;;;;;;;4878212;29;20071;-90
2024/02/26 04:14:08;;;;;;;10.57;2.60;;;;;;;;;;4877979;29;20080;-90
2024/02/26 04:16:39;;;;;;;9.13;2.20;;;;;;;;;;4893684;29;20049;-89
2024/02/26 04:19:10;;;;;;;8.85;2.60;;;;;;;;;;4894068;29;20400;-88
2024/02/26 04:21:42;;;;;;;6.15;2.85;;;;;;;;;;4880343;29;20543;-89
2024/02/26 04:24:13;;;;;;;7.45;2.67;;;;;;;;;;4878899;29;20049;-89
2024/02/26 04:26:43;;;;;;;9.00;2.40;;;;;;;;;;4878523;29;20342;-90
2024/02/26 04:29:14;;;;;;;4.43;2.10;;;;;;;;;;4880025;29;20377;-90
2024/02/26 04:31:46;;;;;;;3.90;2.00;;;;;;;;;;4878967;29;20052;-89
2024/02/26 04:34:19;;;;;;;7.20;1.83;;;;;;;;;;4877338;29;20515;-88
2024/02/26 04:36:51;;;;;;;3.60;1.77;;;;;;;;;;4877436;29;20053;-89
2024/02/26 04:39:21;;;;;;;4.25;1.65;;;;;;;;;;4893414;29;20053;-88
2024/02/26 04:41:52;;;;;;;2.75;1.30;;;;;;;;;;4878938;29;20060;-90
2024/02/26 04:44:22;;;;;;;4.65;1.48;;;;;;;;;;4877269;29;20053;-89
2024/02/26 04:46:53;;;;;;;4.40;1.90;;;;;;;;;;4877769;29;20053;-88
2024/02/26 04:49:23;;;;;;;6.00;1.88;;;;;;;;;;4877377;29;20484;-89
2024/02/26 04:51:53;;;;;;;8.95;1.98;;;;;;;;;;4877846;29;20064;-88
2024/02/26 04:54:25;;;;;;;4.90;1.67;;;;;;;;;;4877901;29;20060;-90
2024/02/26 04:56:58;;;;;;;3.17;1.65;;;;;;;;;;4877456;29;20056;-90
2024/02/26 04:59:29;;;;;;;3.28;1.80;;;;;;;;;;4893240;29;20416;-88
2024/02/26 05:01:59;;;;;;;8.20;2.03;;;;;;;;;;4892978;29;20057;-89
2024/02/26 05:04:30;;;;;;;5.15;1.90;;;;;;;;;;4877910;29;20377;-89
2024/02/26 05:07:01;;;;;;;5.32;1.83;;;;;;;;;;4891186;29;20057;-89
2024/02/26 05:09:32;;;;;;;5.18;1.77;;;;;;;;;;4892235;29;20056;-89
2024/02/26 05:12:03;;;;;;;6.43;1.70;;;;;;;;;;4877315;29;20056;-89
2024/02/26 05:14:34;;;;;;;;;;;;;;;;;;4877212;29;20061;-89
2024/02/26 05:17:05;;;;;;;3.80;1.67;;;;;;;;;;4877501;29;20381;-89
2024/02/26 05:19:36;;;;;;;3.38;1.63;;;;;;;;;;4877148;29;20065;-90
2024/02/26 05:22:06;;;;;;;4.28;1.95;;;;;;;;;;4878054;29;20049;-89
2024/02/26 05:24:38;;;;;;;4.22;1.95;;;;;;;;;;4877205;29;20053;-89
2024/02/26 05:27:09;;;;;;;6.43;1.92;;;;;;;;;;4896983;29;20060;-89
2024/02/26 05:29:40;;;;;;;6.85;1.90;;;;;;;;;;4879299;29;20053;-89
2024/02/26 05:32:14;;;;;;;3.42;1.65;;;;;;;;;;4896856;29;20045;-87
2024/02/26 05:34:46;;;;;;;3.17;1.52;;;;;;;;;;4896275;29;20056;-89
2024/02/26 05:37:17;;;;;;;5.20;2.20;;;;;;;;;;4896269;29;20052;-88
2024/02/26 05:39:50;;;;;;;4.05;1.80;;;;;;;;;;4896674;29;20060;-87
2024/02/26 05:42:20;;;;;;;4.53;2.03;;;;;;;;;;4896234;29;20056;-88
2024/02/26 05:44:50;;;;;;;6.18;1.90;;;;;;;;;;4899438;29;20053;-89
2024/02/26 05:47:20;;;;;;;4.53;1.45;;;;;;;;;;4893232;29;20061;-89
2024/02/26 05:49:50;;;;;;;6.78;2.00;;;;;;;;;;4868801;29;20049;-88
2024/02/26 05:52:21;;;;;;;6.43;2.25;;;;;;;;;;4866815;29;20058;-89
2024/02/26 05:54:54;;;;;;;5.97;1.80;;;;;;;;;;4846899;29;20495;-87
2024/02/26 05:57:25;;;;;;;3.05;1.63;;;;;;;;;;4864254;29;20080;-88
2024/02/26 05:59:56;;;;;;;7.03;1.85;;;;;;;;;;4882453;29;20053;-89
2024/02/26 06:02:26;;;;;;;5.30;2.17;;;;;;;;;;4882289;29;20056;-89
2024/02/26 06:04:56;;;;;;;3.95;1.98;;;;;;;;;;4880513;29;20427;-89
2024/02/26 06:07:27;;;;;;;9.23;2.00;;;;;;;;;;4880124;29;20053;-88
2024/02/26 06:09:57;;;;;;;5.68;1.73;;;;;;;;;;4878654;29;20064;-88
2024/02/26 06:12:28;;;;;;;6.72;1.70;;;;;;;;;;4881171;29;20424;-89
2024/02/26 06:15:01;;;;;;;4.45;1.90;;;;;;;;;;4865892;29;20387;-89
2024/02/26 06:17:34;;;;;;;11.68;1.85;;;;;;;;;;4896132;29;20504;-88
2024/02/26 06:20:06;;;;;;;6.85;2.15;;;;;;;;;;4865722;29;20065;-87
2024/02/26 06:22:36;;;;;;;4.47;2.35;;;;;;;;;;4880749;29;20053;-88
2024/02/26 06:25:07;;;;;;;6.68;2.15;;;;;;;;;;4865395;29;20057;-89
2024/02/26 06:27:39;;;;;;;7.93;2.03;;;;;;;;;;4865326;29;20056;-88
2024/02/26 06:30:11;;;;;;;6.05;2.03;;;;;;;;;;4865790;29;20056;-89
2024/02/26 06:32:41;;;;;;;4.80;1.92;;;;;;;;;;4865202;29;20049;-87
2024/02/26 06:35:11;;;;;;;6.45;1.83;;;;;;;;;;4881461;29;20375;-89
2024/02/26 06:37:42;;;;;;;5.97;1.83;;;;;;;;;;4865569;29;20057;-89
2024/02/26 06:40:12;;;;;;;5.97;2.35;;;;;;;;;;4880850;29;20507;-89
2024/02/26 06:42:43;;;;;;;9.63;1.65;;;;;;;;;;4880416;29;20053;-89
2024/02/26 06:45:19;;;;;;;7.53;2.10;;;;;;;;;;4895876;29;20045;-89
2024/02/26 06:47:50;;;;;;;6.32;2.20;;;;;;;;;;4896054;29;20053;-89
2024/02/26 06:50:23;;;;;;;6.10;2.50;;;;;;;;;;4865642;29;20056;-88
2024/02/26 06:52:54;;;;;;;5.20;2.15;;;;;;;;;;4865452;29;20060;-89
2024/02/26 06:55:26;;;;;;;5.68;2.03;;;;;;;;;;4879442;29;20057;-88
2024/02/26 06:57:56;;;;;;;8.00;2.00;;;;;;;;;;4877408;29;20065;-89
2024/02/26 07:00:26;;;;;;;7.65;2.10;;;;;;;;;;4861407;29;20500;-90
2024/02/26 07:02:56;;;;;;;4.43;2.10;;;;;;;;;;4846018;29;20465;-89
2024/02/26 07:05:29;;;;;;;7.13;2.42;;;;;;;;;;4860987;29;20077;-89
2024/02/26 07:07:59;;;;;;;9.45;2.17;;;;;;;;;;4845599;29;20069;-89
2024/02/26 07:10:29;;;;;;;7.40;2.30;;;;;;;;;;4876173;29;20057;-89
2024/02/26 07:12:59;;;;;;;5.88;1.65;;;;;;;;;;4846494;29;20060;-89
2024/02/26 07:15:30;;;;;;;4.63;2.13;;;;;;;;;;4876638;29;20064;-88
2024/02/26 07:18:03;;;;;;;5.70;2.13;;;;;;;;;;4876985;29;20073;-89
2024/02/26 07:20:33;;;;;;;7.10;2.20;;;;;;;;;;4876221;29;20069;-89
2024/02/26 07:23:04;;;;;;;4.30;2.10;;;;;;;;;;4846307;29;20057;-89
2024/02/26 07:25:34;;;;;;;6.80;2.17;;;;;;;;;;4875615;29;20412;-90
2024/02/26 07:28:05;;;;;;;6.32;2.25;;;;;;;;;;4876019;29;20053;-89
2024/02/26 07:30:36;;;;;;;9.95;2.75;;;;;;;;;;4860921;29;20045;-88
2024/02/26 07:33:09;;;;;;;8.93;3.50;;;;;;;;;;4876307;29;20053;-89
2024/02/26 07:35:42;;;;;;;7.25;2.15;;;;;;;;;;4876281;29;20054;-89
2024/02/26 07:38:13;;;;;;;7.25;2.47;;;;;;;;;;4876483;29;20396;-90
2024/02/26 07:41:01;;;;;;;8.60;2.42;;;;;;;;;;4862164;29;20045;-89
2024/02/26 07:43:32;;;;;;;12.65;2.53;;;;;;;;;;4860998;29;20050;-89
2024/02/26 07:46:02;;;;;;;8.50;2.50;;;;;;;;;;4875791;29;20069;-89
2024/02/26 07:48:34;;;;;;;5.63;2.33;;;;;;;;;;4861964;29;20060;-90
2024/02/26 07:51:05;;;;;;;4.30;2.33;;;;;;;;;;4845556;29;20053;-89
2024/02/26 07:53:35;;;;;;;9.02;2.70;;;;;;;;;;4861142;29;20397;-89
2024/02/26 07:56:07;;;;;;;8.90;2.42;;;;;;;;;;4845025;29;20047;-89
2024/02/26 07:58:37;;;;;;;6.03;2.13;;;;;;;;;;4860490;29;20061;-89
2024/02/26 08:01:08;;;;;;;10.82;2.38;;;;;;;;;;4876567;29;20061;-89
2024/02/26 08:03:38;;;;;;;6.07;2.10;;;;;;;;;;4846137;29;20061;-89
2024/02/26 08:06:09;;;;;;;5.22;2.25;;;;;;;;;;4875086;29;20076;-89
2024/02/26 08:08:40;;;;;;;6.13;1.90;;;;;;;;;;4866439;29;20056;-88
2024/02/26 08:11:10;;;;;;;4.85;1.73;;;;;;;;;;4877539;29;20064;-87
2024/02/26 08:13:40;;;;;;;9.02;2.13;;;;;;;;;;4863809;29;20060;-86
2024/02/26 08:16:12;;;;;;;7.22;2.53;;;;;;;;;;4878327;29;20053;-86
2024/02/26 08:18:43;;;;;;;6.15;2.50;;;;;;;;;;4893455;29;20128;-85
2024/02/26 08:21:14;;;;;;;7.28;2.05;;;;;;;;;;4893686;29;20061;-86
2024/02/26 08:23:44;;;;;;;6.80;2.00;;;;;;;;;;4878910;29;20048;-86
2024/02/26 08:26:17;;;;;;;4.15;2.08;;;;;;;;;;4878103;29;20061;-86
2024/02/26 08:28:47;;;;;;;6.65;2.42;;;;;;;;;;4894147;29;20475;-86
2024/02/26 08:31:19;;;;;;;6.90;2.10;;;;;;;;;;4878401;29;20068;-86
2024/02/26 08:33:49;;;;;;;6.68;1.90;;;;;;;;;;4880050;29;20053;-87
2024/02/26 08:36:20;;;;;;;10.05;2.33;;;;;;;;;;4877390;29;20415;-87
2024/02/26 08:38:52;;;;;;;10.07;2.15;;;;;;;;;;4893640;29;20060;-87
2024/02/26 08:41:22;;;;;;;7.28;2.65;;;;;;;;;;4878319;29;20060;-86
2024/02/26 08:43:53;;;;;;;7.65;2.47;;;;;;;;;;4878382;29;20053;-86
2024/02/26 08:46:23;;;;;;;4.70;2.22;;;;;;;;;;4879228;29;20052;-87
2024/02/26 08:48:54;;;;;;;5.85;2.30;;;;;;;;;;4893603;29;20060;-87
2024/02/26 08:51:26;;;;;;;7.18;2.45;;;;;;;;;;4876959;29;20068;-87
2024/02/26 08:53:57;;;;;;;8.00;2.70;;;;;;;;;;4878544;29;20053;-87
2024/02/26 08:56:27;;;;;;;5.32;2.33;;;;;;;;;;4862962;29;20484;-90
2024/02/26 08:58:59;;;;;;;10.80;2.90;;;;;;;;;;4877862;29;20060;-87
2024/02/26 09:01:32;;;;;;;7.40;2.15;;;;;;;;;;4893134;29;20057;-87
2024/02/26 09:04:03;;;;;;;5.07;2.13;;;;;;;;;;4878064;29;20049;-89
2024/02/26 09:06:34;;;;;;;6.03;1.92;;;;;;;;;;4892985;29;20115;-90
2024/02/26 09:09:06;;;;;;;7.82;2.20;;;;;;;;;;4862434;29;20056;-89
2024/02/26 09:11:38;;;;;;;5.45;2.10;;;;;;;;;;4877457;29;20393;-89
2024/02/26 09:14:08;;;;;;;6.45;2.50;;;;;;;;;;4879707;29;20049;-89
2024/02/26 09:16:39;;;;;;;6.80;2.25;;;;;;;;;;4877149;29;20428;-89
2024/02/26 09:19:12;;;;;;;7.22;2.20;;;;;;;;;;4864279;29;20404;-89
2024/02/26 09:21:45;;;;;;;5.90;2.22;;;;;;;;;;4896514;29;20057;-89
2024/02/26 09:24:16;;;;;;;5.25;2.05;;;;;;;;;;4865552;29;20053;-90
2024/02/26 09:26:47;;;;;;;5.93;2.30;;;;;;;;;;4896064;29;20060;-89
2024/02/26 09:29:18;;;;;;;6.40;1.88;;;;;;;;;;4896519;29;20056;-89
2024/02/26 09:31:49;;;;;;;8.50;2.13;;;;;;;;;;4896501;29;20426;-89
2024/02/26 09:34:19;;;;;;;9.30;2.45;;;;;;;;;;4896495;29;20135;-89
2024/02/26 09:36:50;;;;;;;8.77;2.17;;;;;;;;;;4896229;29;20064;-89
2024/02/26 09:39:28;;;;;;;11.10;2.10;;;;;;;;;;4865785;29;20057;-89
2024/02/26 09:42:04;;;;;;;11.60;3.58;;;;;;;;;;4880734;29;20213;-89
2024/02/26 09:44:40;;;;;;;10.10;2.67;;;;;;;;;;4881603;29;20057;-90
2024/02/26 09:47:17;;;;;;;10.70;2.28;;;;;;;;;;4896376;29;20060;-90
2024/02/26 09:49:49;;;;;;;6.57;2.33;;;;;;;;;;4897244;29;20404;-90
2024/02/26 09:52:22;;;;;;;10.57;2.33;;;;;;;;;;4880195;29;20056;-89
2024/02/26 09:54:52;;;;;;;5.28;2.47;;;;;;;;;;4865440;29;20057;-89
2024/02/26 09:57:24;;;;;;;8.48;2.75;;;;;;;;;;4896038;29;20061;-89
2024/02/26 10:00:03;;;;;;;6.35;2.47;;;;;;;;;;4896297;29;20372;-89
2024/02/26 10:02:38;;;;;;;6.95;2.42;;;;;;;;;;4880155;29;20057;-89
2024/02/26 10:05:12;;;;;;;9.68;2.17;;;;;;;;;;4880828;29;20507;-90
2024/02/26 10:07:44;;;;;;;8.73;2.10;;;;;;;;;;4880218;29;20057;-89
2024/02/26 10:10:18;;;;;;;8.13;1.90;;;;;;;;;;4896762;29;20052;-90
2024/02/26 10:12:48;;;;;;;4.68;1.33;;;;;;;;;;4880403;29;20530;-90
2024/02/26 10:15:18;;;;;;;3.05;1.15;;;;;;;;;;4881142;29;20057;-91
2024/02/26 10:17:48;;;;;;;4.60;1.90;;;;;;;;;;4880380;29;20053;-91
2024/02/26 10:20:26;;;;;;;6.75;1.67;;;;;;;;;;4881046;29;20060;-89
2024/02/26 10:22:57;;;;;;;5.72;1.42;;;;;;;;;;4896039;29;20095;-91
2024/02/26 10:25:27;;;;;;;4.72;1.10;;;;;;;;;;4881061;29;20412;-91
2024/02/26 10:28:04;;;;;;;4.03;1.42;;;;;;;;;;4895314;29;20408;-89
2024/02/26 10:30:38;;;;;;;3.38;1.33;;;;;;;;;;4880665;29;20049;-90
2024/02/26 10:33:10;;;;;;;5.43;1.55;;;;;;;;;;4895869;29;20151;-89
2024/02/26 10:35:45;;;;;;;4.95;1.27;;;;;;;;;;4881269;29;20056;-91
2024/02/26 10:38:20;;;;;;;6.38;1.55;;;;;;;;;;4894393;29;20061;-89
2024/02/26 10:40:51;;;;;;;4.80;1.63;;;;;;;;;;4878580;29;20060;-88
2024/02/26 10:43:22;;;;;;;3.17;1.50;;;;;;;;;;4878076;29;20049;-90
2024/02/26 10:45:54;;;;;;;8.35;1.95;;;;;;;;;;4879524;29;20060;-88
2024/02/26 10:48:26;;;;;;;3.03;1.70;;;;;;;;;;4880850;29;20044;-89
2024/02/26 10:50:58;;;;;;;4.50;2.03;;;;;;;;;;4879523;29;20412;-89
2024/02/26 10:53:33;;;;;;;3.65;1.33;;;;;;;;;;4875459;29;20412;-88
2024/02/26 10:56:07;;;;;;;3.30;1.40;;;;;;;;;;4879861;29;20045;-87
2024/02/26 10:58:46;;;;;;;3.97;1.40;;;;;;;;;;4877738;29;20064;-89
2024/02/26 11:01:20;;;;;;;3.63;1.35;;;;;;;;;;4878763;29;20056;-88
2024/02/26 11:03:54;;;;;;;3.40;1.55;;;;;;;;;;4882471;29;20496;-88
2024/02/26 11:06:26;;;;;;;2.92;1.05;;;;;;;;;;4881008;29;20526;-89
2024/02/26 11:08:59;;;;;;;6.47;1.45;;;;;;;;;;4898867;29;20060;-88
2024/02/26 11:11:35;;;;;;;5.57;1.40;;;;;;;;;;4878880;29;20064;-85
2024/02/26 11:14:13;;;;;;;7.65;1.75;;;;;;;;;;4872273;29;20068;-88
2024/02/26 11:16:44;;;;;;;6.82;1.02;;;;;;;;;;4866780;29;20060;-86
2024/02/26 11:19:16;;;;;;;3.13;1.10;;;;;;;;;;4879350;29;20053;-82
2024/02/26 11:21:48;;;;;;;2.10;0.98;;;;;;;;;;4893074;29;20044;-85
2024/02/26 11:24:20;;;;;;;4.35;1.15;;;;;;;;;;4897783;29;20056;-82
2024/02/26 11:27:00;;;;;;;4.32;1.50;;;;;;;;;;4888625;29;20048;-83
2024/02/26 11:29:37;;;;;;;3.90;1.13;;;;;;;;;;4881060;29;20060;-85
2024/02/26 11:32:08;;;;;;;6.68;1.23;;;;;;;;;;4860834;29;20060;-83
2024/02/26 11:34:42;;;;;;;8.32;2.22;;;;;;;;;;4861472;29;20419;-83
2024/02/26 11:37:16;;;;;;;4.15;1.83;;;;;;;;;;4878939;29;20049;-84
2024/02/26 11:39:47;;;;;;;5.60;1.20;;;;;;;;;;4879416;29;20044;-85
2024/02/26 11:42:29;;;;;;;3.38;0.70;;;;;;;;;;4878205;29;20044;-86
2024/02/26 11:45:02;;;;;;;3.95;1.15;;;;;;;;;;4877455;29;20087;-83
2024/02/26 11:47:38;;;;;;;4.35;1.10;;;;;;;;;;4877238;29;20060;-82
2024/02/26 11:50:49;;;;;;;4.00;1.00;;;;;;;;;;4877370;29;20412;-83
2024/02/26 11:53:31;;;;;;;3.05;0.88;;;;;;;;;;4868299;29;20048;-83
2024/02/26 11:56:18;;;;;;;1.50;0.70;;;;;;;;;;4846678;29;20061;-81
2024/02/26 11:58:53;;;;;;;2.08;0.75;;;;;;;;;;4877832;29;20053;-82
2024/02/26 12:01:43;;;;;;;5.40;0.80;;;;;;;;;;4877814;29;20353;-83
2024/02/26 12:04:20;;;;;;;1.65;0.77;;;;;;;;;;4876031;29;20061;-82
2024/02/26 12:07:00;;;;;;;3.30;0.98;;;;;;;;;;4877793;29;20503;-82
2024/02/26 12:09:36;;;;;;;2.45;1.00;;;;;;;;;;4877938;29;20040;-82
2024/02/26 12:12:08;;;;;;;1.85;0.95;;;;;;;;;;4861043;29;20045;-82
2024/02/26 12:14:52;;;;;;;4.70;1.30;;;;;;;;;;4895659;29;20053;-82
2024/02/26 12:17:25;;;;;;;3.28;0.75;;;;;;;;;;4876329;29;20044;-84
2024/02/26 12:20:09;;;;;;;2.00;0.70;;;;;;;;;;4878978;29;20053;-83
2024/02/26 12:22:40;;;;;;;4.00;1.00;;;;;;;;;;4892616;29;20079;-83
2024/02/26 12:25:11;;;;;;;1.92;0.90;;;;;;;;;;4878479;29;20060;-84
2024/02/26 12:27:41;;;;;;;4.85;0.98;;;;;;;;;;4877066;29;20056;-85
2024/02/26 12:30:12;;;;;;;1.27;0.80;;;;;;;;;;4878945;29;20064;-84
2024/02/26 12:32:43;;;;;;;1.67;0.73;;;;;;;;;;4877569;29;20053;-85
2024/02/26 12:35:17;;;;;;;1.52;0.90;;;;;;;;;;4862358;29;20076;-85
2024/02/26 12:37:48;;;;;;;2.47;1.13;;;;;;;;;;4876465;29;20059;-84
2024/02/26 12:40:18;;;;;;;4.15;1.15;;;;;;;;;;4877420;29;20508;-85
2024/02/26 12:42:57;;;;;;;1.20;0.98;;;;;;;;;;4878419;29;20064;-85
2024/02/26 12:45:28;;;;;;;2.67;0.90;;;;;;;;;;4876076;29;20413;-84
2024/02/26 12:48:01;;;;;;;3.03;1.20;;;;;;;;;;4876951;29;20060;-84
2024/02/26 12:50:33;;;;;;;6.93;1.08;;;;;;;;;;4876282;29;20049;-84
2024/02/26 12:53:04;;;;;;;3.88;1.15;;;;;;;;;;4878023;29;20337;-85
2024/02/26 12:55:36;;;;;;;3.13;1.00;;;;;;;;;;4876569;29;20423;-84
2024/02/26 12:58:07;;;;;;;2.67;1.13;;;;;;;;;;4861227;29;20045;-85
2024/02/26 13:00:37;;;;;;;2.72;1.00;;;;;;;;;;4877732;29;20049;-83
2024/02/26 13:03:11;;;;;;;4.70;0.95;;;;;;;;;;4878266;29;20053;-82
2024/02/26 13:05:55;;;;;;;2.25;1.10;;;;;;;;;;4874852;29;20045;-82
2024/02/26 13:08:27;;;;;;;1.45;0.88;;;;;;;;;;4876581;29;20060;-82
2024/02/26 13:10:58;;;;;;;2.20;0.80;;;;;;;;;;4878484;29;20056;-83
2024/02/26 13:13:29;;;;;;;1.60;0.82;;;;;;;;;;4877919;29;20056;-84
2024/02/26 13:16:08;;;;;;;2.30;0.90;;;;;;;;;;4876390;29;20066;-85
2024/02/26 13:18:38;;;;;;;2.38;0.80;;;;;;;;;;4878319;29;20053;-84
2024/02/26 13:21:15;;;;;;;2.30;0.98;;;;;;;;;;4875863;29;20064;-84
2024/02/26 13:23:52;;;;;;;1.70;1.13;;;;;;;;;;4889879;29;20056;-83
2024/02/26 13:26:24;;;;;;;5.35;1.23;;;;;;;;;;4876131;29;20701;-84
2024/02/26 13:29:05;;;;;;;1.73;0.85;;;;;;;;;;4885651;29;20055;-84
2024/02/26 13:31:41;;;;;;;3.60;1.40;;;;;;;;;;4876326;29;20048;-82
2024/02/26 13:34:26;;;;;;;3.03;0.80;;;;;;;;;;4873358;29;20060;-84
2024/02/26 13:36:58;;;;;;;1.33;0.90;;;;;;;;;;4874380;29;20049;-86
2024/02/26 13:39:30;;;;;;;3.55;1.00;;;;;;;;;;4873034;29;20050;-85
2024/02/26 13:42:00;;;;;;;2.38;0.95;;;;;;;;;;4869201;29;20045;-86
2024/02/26 13:47:24;;;;;;;2.88;1.00;;;;;;;;;;4893031;29;20053;-84
2024/02/26 13:50:02;;;;;;;1.25;0.90;;;;;;;;;;4872398;29;20432;-85
2024/02/26 13:52:34;;;;;;;2.17;0.90;;;;;;;;;;4859539;29;20056;-84
2024/02/26 13:55:05;;;;;;;;;;;;;;;;;;4876454;29;20427;-85
2024/02/26 13:57:38;;;;;;;2.50;0.88;;;;;;;;;;4875872;29;19924;-84
2024/02/26 14:00:10;;;;;;;3.45;1.67;;;;;;;;;;4874344;29;20416;-85
2024/02/26 14:02:42;;;;;;;1.30;0.90;;;;;;;;;;4875262;29;20049;-84
2024/02/26 14:05:12;;;;;;;1.60;1.00;;;;;;;;;;4879028;29;20060;-85
2024/02/26 14:07:43;;;;;;;2.60;1.00;;;;;;;;;;4880479;29;20056;-84
2024/02/26 14:10:17;;;;;;;2.97;0.88;;;;;;;;;;4878453;29;20048;-88
2024/02/26 14:12:47;;;;;;;1.63;0.90;;;;;;;;;;4879474;29;20048;-88
2024/02/26 14:15:19;;;;;;;3.38;1.00;;;;;;;;;;4879800;29;20056;-86
2024/02/26 14:17:54;;;;;;;2.55;0.90;;;;;;;;;;4879924;29;20524;-87
2024/02/26 14:21:13;;;;;;;2.38;0.80;;;;;;;;;;4880845;29;20057;-86
2024/02/26 14:23:44;;;;;;;4.20;0.80;;;;;;;;;;4863927;29;20504;-88
2024/02/26 14:26:15;;;;;;;3.50;0.75;;;;;;;;;;4880437;29;20393;-88
2024/02/26 14:29:10;;;;;;;1.65;0.70;;;;;;;;;;4880294;29;20427;-88
2024/02/26 14:31:43;;;;;;;1.48;0.85;;;;;;;;;;4879544;29;20053;-89
2024/02/26 14:34:18;;;;;;;2.05;0.73;;;;;;;;;;4879730;29;20045;-87
2024/02/26 14:36:49;;;;;;;1.95;0.68;;;;;;;;;;4877003;29;20519;-87
2024/02/26 14:39:20;;;;;;;4.50;0.80;;;;;;;;;;4878329;29;20045;-87
2024/02/26 14:41:50;;;;;;;2.58;0.85;;;;;;;;;;4879365;29;20072;-87
2024/02/26 14:44:25;;;;;;;7.03;1.23;;;;;;;;;;4879746;29;20421;-84
2024/02/26 14:46:56;;;;;;;3.20;0.80;;;;;;;;;;4880896;29;20488;-88
2024/02/26 14:49:26;;;;;;;3.13;0.95;;;;;;;;;;4894622;29;20049;-88
2024/02/26 14:51:56;;;;;;;1.23;0.80;;;;;;;;;;4878653;29;20504;-87
2024/02/26 14:54:27;;;;;;;2.53;1.10;;;;;;;;;;4891624;29;20051;-88
2024/02/26 14:56:58;;;;;;;1.98;0.82;;;;;;;;;;4881362;29;20518;-86
2024/02/26 14:59:28;;;;;;;1.85;1.10;;;;;;;;;;4880407;29;20060;-83
2024/02/26 15:02:01;;;;;;;1.25;0.75;;;;;;;;;;4879880;29;20041;-85
2024/02/26 15:04:32;;;;;;;1.65;1.00;;;;;;;;;;4878561;29;20044;-85
2024/02/26 15:07:04;;;;;;;5.28;1.33;;;;;;;;;;4879167;29;20044;-86
2024/02/26 15:09:34;;;;;;;;;;;;;;;;;;4893794;29;20053;-85
2024/02/26 15:12:07;;;;;;;5.78;0.90;;;;;;;;;;4878885;29;19931;-87
2024/02/26 15:14:39;;;;;;;2.17;0.90;;;;;;;;;;4880020;29;20065;-85
2024/02/26 15:17:13;;;;;;;1.70;0.80;;;;;;;;;;4879347;29;20056;-84